Time;durP1;ratioP1;P1;durP2;ratioP2;P2;SDS_P1;SDS_P2;PMS_P1;PMS_P2;Temp;Humidity;BMP_temperature;BMP_pressure;BME280_temperature;BME280_humidity;BME280_pressure;Samples;Min_cycle;Max_cycle;Signal;HPM_P1;HPM_P2
2022/01/31 00:00:26;;;;;;;3.30;0.93;;;17.00;29.00;17.10;94185.00;;;;10381541;28;47371;-78
2022/01/31 00:05:27;;;;;;;3.20;1.00;;;17.00;28.90;17.10;94196.00;;;;10380960;28;46861;-78
2022/01/31 00:10:30;;;;;;;2.80;0.90;;;17.00;28.80;17.10;94134.00;;;;10397960;28;45545;-78
2022/01/31 00:15:36;;;;;;;2.97;0.93;;;17.00;28.90;17.10;94166.00;;;;10380687;28;47274;-78
2022/01/31 00:20:36;;;;;;;2.93;0.70;;;16.90;28.90;17.10;94150.00;;;;10372180;28;47004;-78
2022/01/31 00:25:37;;;;;;;2.63;0.70;;;17.00;28.90;17.10;94126.00;;;;10339570;28;48205;-78
2022/01/31 00:30:38;;;;;;;3.85;1.00;;;16.90;28.90;17.00;94130.00;;;;10356153;28;47169;-78
2022/01/31 00:35:39;;;;;;;2.65;0.90;;;16.90;28.80;17.10;94123.00;;;;10355646;28;45301;-78
2022/01/31 00:40:41;;;;;;;3.00;0.82;;;16.90;28.80;17.00;94061.00;;;;10355986;28;45217;-78
2022/01/31 00:45:46;;;;;;;2.85;0.88;;;16.90;28.60;17.10;94061.00;;;;10339082;28;47047;-78
2022/01/31 00:50:47;;;;;;;3.25;0.77;;;16.90;28.70;17.00;94054.00;;;;10339786;28;46922;-78
2022/01/31 00:55:48;;;;;;;3.10;0.90;;;16.90;28.60;17.00;94049.00;;;;10338329;28;47043;-78
2022/01/31 01:00:48;;;;;;;4.22;0.90;;;16.90;28.60;17.00;94052.00;;;;10339110;28;47142;-78
2022/01/31 01:05:49;;;;;;;1.65;0.70;;;16.90;28.60;17.00;94031.00;;;;10338369;28;47268;-78
2022/01/31 01:10:50;;;;;;;1.88;0.60;;;16.90;28.60;17.00;94048.00;;;;10355634;28;45366;-78
2022/01/31 01:15:50;;;;;;;1.75;0.73;;;16.90;28.60;17.00;94053.00;;;;10354781;28;45358;-78
2022/01/31 01:20:51;;;;;;;4.75;0.90;;;16.80;28.60;17.00;94057.00;;;;10348728;28;48440;-78
2022/01/31 01:25:52;;;;;;;2.22;0.70;;;16.80;28.60;17.00;94054.00;;;;10395633;28;45413;-78
2022/01/31 01:30:55;;;;;;;2.63;0.90;;;16.80;28.70;17.00;94059.00;;;;10384263;28;47109;-78
2022/01/31 01:35:56;;;;;;;1.40;0.57;;;16.80;28.70;16.90;94036.00;;;;10403817;28;45301;-78
2022/01/31 01:40:59;;;;;;;2.45;0.80;;;16.80;28.70;16.90;94033.00;;;;10402466;28;47205;-77
2022/01/31 01:46:00;;;;;;;3.30;0.80;;;16.80;28.60;16.90;94032.00;;;;10385227;28;47377;-78
2022/01/31 01:51:02;;;;;;;2.28;0.77;;;16.80;28.60;16.90;94001.00;;;;10385957;28;46879;-78
2022/01/31 01:56:03;;;;;;;2.95;1.02;;;16.80;28.50;16.90;94003.00;;;;10385482;28;47934;-78
2022/01/31 02:01:05;;;;;;;2.95;0.88;;;16.80;28.50;16.90;93981.00;;;;10401562;28;46135;-78
2022/01/31 02:06:07;;;;;;;3.55;0.90;;;16.80;28.30;16.90;93971.00;;;;10385121;28;47202;-78
2022/01/31 02:11:10;;;;;;;2.05;0.70;;;16.70;28.20;16.90;93956.00;;;;10401894;28;46388;-78
2022/01/31 02:16:11;;;;;;;3.78;0.98;;;16.70;28.30;16.90;93961.00;;;;10384543;28;47219;-78
2022/01/31 02:21:11;;;;;;;3.22;0.80;;;16.70;28.40;16.90;93940.00;;;;10371529;28;46934;-78
2022/01/31 02:26:12;;;;;;;3.00;0.68;;;16.70;28.40;16.90;93935.00;;;;10343850;28;46758;-78
2022/01/31 02:31:13;;;;;;;3.38;0.80;;;16.70;28.30;16.90;93898.00;;;;10360162;28;46391;-78
2022/01/31 02:36:13;;;;;;;4.07;0.98;;;16.70;28.30;16.80;93888.00;;;;10342939;28;47364;-78
2022/01/31 02:41:14;;;;;;;3.05;0.90;;;16.70;28.30;16.80;93853.00;;;;10342420;28;47426;-77
2022/01/31 02:46:16;;;;;;;4.47;0.82;;;16.70;28.30;16.80;93867.00;;;;10358912;28;46705;-78
2022/01/31 02:51:21;;;;;;;2.95;0.73;;;16.70;28.20;16.90;93866.00;;;;10359536;28;46951;-78
2022/01/31 02:56:22;;;;;;;3.22;0.70;;;16.70;28.20;16.90;93862.00;;;;10342293;28;46910;-78
2022/01/31 03:01:22;;;;;;;3.85;0.70;;;16.70;28.10;16.90;93811.00;;;;10342612;28;48201;-77
2022/01/31 03:06:23;;;;;;;1.52;0.50;;;16.70;28.10;16.90;93835.00;;;;10342056;28;47194;-78
2022/01/31 03:11:23;;;;;;;3.97;0.93;;;16.70;28.10;16.90;93825.00;;;;10342093;28;47167;-78
2022/01/31 03:16:24;;;;;;;3.53;0.70;;;16.70;28.10;16.90;93851.00;;;;10341636;28;48268;-78
2022/01/31 03:21:25;;;;;;;3.97;0.90;;;16.80;28.10;16.90;93843.00;;;;10374854;28;46345;-78
2022/01/31 03:26:25;;;;;;;3.22;0.90;;;16.80;28.10;16.90;93828.00;;;;10382288;28;46956;-78
2022/01/31 03:31:26;;;;;;;2.55;0.73;;;16.80;28.20;17.00;93824.00;;;;10398809;28;47031;-78
2022/01/31 03:36:27;;;;;;;2.05;0.90;;;16.90;28.20;17.00;93780.00;;;;10381555;28;47131;-78
2022/01/31 03:41:27;;;;;;;2.15;0.70;;;16.80;28.10;17.00;93749.00;;;;10382599;28;47539;-77
2022/01/31 03:46:30;;;;;;;4.53;0.80;;;16.90;28.10;17.10;93784.00;;;;10382294;28;46513;-78
2022/01/31 03:51:31;;;;;;;2.08;0.55;;;17.00;28.20;17.10;93761.00;;;;10381258;28;47028;-78
2022/01/31 03:56:32;;;;;;;1.98;0.52;;;17.00;28.10;17.10;93773.00;;;;10380860;28;46916;-78
2022/01/31 04:01:33;;;;;;;2.50;0.60;;;17.10;28.20;17.20;93738.00;;;;10397873;28;46873;-78
2022/01/31 04:06:33;;;;;;;2.28;0.60;;;17.20;28.20;17.20;93714.00;;;;10397137;28;46869;-78
2022/01/31 04:11:34;;;;;;;3.75;0.65;;;17.20;28.10;17.20;93727.00;;;;10381161;28;46833;-78
2022/01/31 04:16:35;;;;;;;2.17;0.70;;;17.30;28.20;17.20;93734.00;;;;10380201;28;46863;-78
2022/01/31 04:21:36;;;;;;;2.13;0.68;;;17.30;28.20;17.20;93730.00;;;;10380843;28;45324;-78
2022/01/31 04:26:44;;;;;;;3.33;0.70;;;17.30;28.20;17.20;93714.00;;;;10339513;28;47125;-78
2022/01/31 04:31:49;;;;;;;2.05;0.60;;;17.30;28.20;17.20;93686.00;;;;10340770;28;47357;-78
2022/01/31 04:36:50;;;;;;;2.22;0.73;;;17.20;28.20;17.20;93713.00;;;;10355426;28;45424;-78
2022/01/31 04:41:51;;;;;;;3.85;0.82;;;17.20;28.70;17.20;93703.00;;;;10339446;28;47915;-78
2022/01/31 04:46:52;;;;;;;1.45;0.52;;;17.20;28.20;17.20;93706.00;;;;10338303;28;47487;-77
2022/01/31 04:51:52;;;;;;;2.47;0.63;;;17.20;28.30;17.20;93687.00;;;;10339212;28;47364;-78
2022/01/31 04:56:53;;;;;;;1.73;0.60;;;17.20;28.30;17.20;93688.00;;;;10354209;28;45476;-78
2022/01/31 05:01:54;;;;;;;1.60;0.60;;;17.20;28.40;17.20;93669.00;;;;10354959;28;45654;-78
2022/01/31 05:06:54;;;;;;;2.40;0.68;;;17.30;28.40;17.20;93653.00;;;;10337147;28;47256;-78
2022/01/31 05:11:55;;;;;;;2.90;0.70;;;17.20;28.90;17.30;93643.00;;;;10354860;28;47369;-77
2022/01/31 05:16:55;;;;;;;1.15;0.50;;;17.30;28.50;17.20;93609.00;;;;10338105;28;47113;-78
2022/01/31 05:21:56;;;;;;;2.15;0.90;;;17.30;29.00;17.30;93668.00;;;;10357550;28;48336;-78
2022/01/31 05:26:57;;;;;;;0.80;0.32;;;17.30;28.60;17.30;93634.00;;;;10395647;28;45321;-78
2022/01/31 05:31:57;;;;;;;1.98;0.50;;;17.30;28.60;17.30;93631.00;;;;10395704;28;46469;-78
2022/01/31 05:36:58;;;;;;;1.70;0.40;;;17.40;28.60;17.30;93643.00;;;;10396425;28;45392;-78
2022/01/31 05:41:59;;;;;;;3.13;0.40;;;17.40;28.70;17.40;93649.00;;;;10395493;28;47046;-78
2022/01/31 05:47:16;;;;;;;1.10;0.40;;;17.40;28.70;17.40;93642.00;;;;10378696;28;48018;-78
2022/01/31 05:52:17;;;;;;;1.25;0.40;;;17.40;28.70;17.40;93629.00;;;;10394939;28;46625;-78
2022/01/31 05:57:18;;;;;;;1.55;0.45;;;17.50;28.70;17.40;93634.00;;;;10392887;28;47204;-78
2022/01/31 06:02:19;;;;;;;0.75;0.30;;;17.40;28.70;17.40;93637.00;;;;10376624;28;47073;-78
2022/01/31 06:07:19;;;;;;;2.17;0.50;;;17.50;28.80;17.40;93645.00;;;;10377689;28;47533;-78
2022/01/31 06:12:20;;;;;;;1.45;0.50;;;17.50;28.80;17.40;93646.00;;;;10377879;28;46985;-78
2022/01/31 06:17:21;;;;;;;1.20;0.50;;;17.50;28.90;17.40;93609.00;;;;10397632;28;47103;-78
2022/01/31 06:22:21;;;;;;;1.40;0.40;;;17.40;28.90;17.40;93627.00;;;;10378443;28;47583;-78
2022/01/31 06:27:22;;;;;;;0.90;0.35;;;17.50;29.00;17.40;93600.00;;;;10343242;28;47236;-77
2022/01/31 06:32:25;;;;;;;0.73;0.30;;;17.50;29.10;17.40;93611.00;;;;10343652;28;46881;-78
2022/01/31 06:37:26;;;;;;;0.75;0.40;;;17.40;29.30;17.40;93614.00;;;;10359643;28;45371;-78
2022/01/31 06:42:27;;;;;;;1.15;0.40;;;17.40;29.30;17.40;93578.00;;;;10343482;28;47232;-78
2022/01/31 06:47:28;;;;;;;1.42;0.60;;;17.40;29.40;17.40;93586.00;;;;10342090;28;46944;-78
2022/01/31 06:52:32;;;;;;;2.40;0.43;;;17.40;29.30;17.40;93592.00;;;;10343031;28;47014;-78
2022/01/31 06:57:36;;;;;;;1.52;0.57;;;17.50;29.40;17.40;93595.00;;;;10342791;28;47343;-78
2022/01/31 07:02:37;;;;;;;1.27;0.50;;;17.50;29.40;17.50;93563.00;;;;10342797;28;48035;-78
2022/01/31 07:07:38;;;;;;;1.70;0.68;;;17.50;29.50;17.40;93554.00;;;;10341934;28;47525;-78
2022/01/31 07:12:41;;;;;;;0.70;0.40;;;17.50;29.40;17.50;93555.00;;;;10359306;28;46467;-78
2022/01/31 07:17:43;;;;;;;1.67;0.50;;;17.50;29.40;17.50;93555.00;;;;10358049;28;47185;-78
2022/01/31 07:22:50;;;;;;;1.42;0.60;;;17.50;29.40;17.50;93571.00;;;;10367577;28;47196;-78
2022/01/31 07:27:50;;;;;;;1.88;0.40;;;17.60;29.50;17.60;93552.00;;;;10382582;28;47435;-78
2022/01/31 07:32:52;;;;;;;0.63;0.45;;;17.60;29.40;17.60;93556.00;;;;10381861;28;48068;-78
2022/01/31 07:37:53;;;;;;;0.63;0.30;;;17.60;29.90;17.60;93544.00;;;;10397962;28;45305;-78
2022/01/31 07:43:14;;;;;;;1.48;0.40;;;17.70;29.40;17.60;93531.00;;;;10380102;28;48530;-78
2022/01/31 07:48:14;;;;;;;0.70;0.22;;;17.70;29.40;17.60;93521.00;;;;10380492;28;48139;-78
2022/01/31 07:53:15;;;;;;;0.60;0.30;;;17.70;29.40;17.60;93524.00;;;;10358400;28;47000;-78
2022/01/31 07:58:17;;;;;;;0.32;0.20;;;17.70;29.40;17.60;93526.00;;;;10364570;23;47224;-72
2022/01/31 08:03:19;;;;;;;0.28;0.15;;;17.70;29.40;17.60;93531.00;;;;10316645;28;47074;-72
2022/01/31 08:08:20;;;;;;;0.22;0.10;;;17.70;29.50;17.60;93515.00;;;;10317011;28;47354;-72
2022/01/31 08:13:21;;;;;;;1.40;0.30;;;17.60;29.30;17.60;93526.00;;;;10314788;28;48381;-72
2022/01/31 08:18:22;;;;;;;0.52;0.20;;;17.60;29.30;17.60;93548.00;;;;10315683;28;47027;-72
2022/01/31 08:23:22;;;;;;;0.10;0.10;;;17.60;29.30;17.50;93521.00;;;;10346428;28;46824;-71
2022/01/31 08:28:32;;;;;;;0.00;0.00;;;17.60;29.40;17.50;93488.00;;;;10353791;28;47799;-72
2022/01/31 08:33:42;;;;;;;0.50;0.20;;;17.60;29.50;17.60;93525.00;;;;10354638;28;47090;-72
2022/01/31 08:38:44;;;;;;;0.32;0.10;;;17.60;29.50;17.60;93511.00;;;;10354363;28;47973;-72
2022/01/31 08:43:45;;;;;;;0.03;0.03;;;17.60;29.60;17.50;93520.00;;;;10355103;28;45352;-71
2022/01/31 08:48:46;;;;;;;0.25;0.20;;;17.60;29.50;17.50;93494.00;;;;10354605;28;46921;-71
2022/01/31 08:53:51;;;;;;;0.10;0.10;;;17.50;30.20;17.50;93518.00;;;;10333864;28;47186;-71
2022/01/31 08:58:52;;;;;;;0.17;0.10;;;17.60;30.00;17.50;93516.00;;;;10325073;28;46960;-72
2022/01/31 09:08:54;;;;;;;0.30;0.10;;;17.50;30.40;17.60;93497.00;;;;10330427;28;45164;-71
2022/01/31 09:13:55;;;;;;;1.08;0.10;;;17.60;30.10;17.60;93496.00;;;;10312356;28;47195;-71
2022/01/31 09:18:56;;;;;;;0.00;0.00;;;17.60;30.10;17.50;93501.00;;;;10312872;28;45284;-71
2022/01/31 09:23:58;;;;;;;1.02;0.10;;;17.50;30.10;17.50;93505.00;;;;10348881;28;45193;-71
2022/01/31 09:29:00;;;;;;;0.00;0.00;;;17.60;30.10;17.50;93487.00;;;;10336637;28;47019;-71
2022/01/31 09:34:01;;;;;;;0.45;0.00;;;17.50;30.10;17.50;93467.00;;;;10352227;28;48298;-71
2022/01/31 09:39:02;;;;;;;0.00;0.00;;;17.50;30.10;17.50;93472.00;;;;10353214;28;47238;-71
2022/01/31 09:44:17;;;;;;;0.20;0.10;;;17.60;30.10;17.50;93480.00;;;;10353072;28;45258;-71
2022/01/31 09:49:22;;;;;;;0.90;0.10;;;17.50;30.10;17.50;93471.00;;;;10355207;28;47129;-71
2022/01/31 09:54:27;;;;;;;0.00;0.00;;;17.50;30.20;17.50;93488.00;;;;10329227;28;46941;-71
2022/01/31 09:59:28;;;;;;;0.00;0.00;;;17.50;30.10;17.50;93485.00;;;;10319055;28;47178;-70
2022/01/31 10:04:34;;;;;;;0.10;0.00;;;17.50;30.10;17.50;93492.00;;;;10318578;28;45567;-71
2022/01/31 10:09:35;;;;;;;0.00;0.00;;;17.40;30.10;17.40;93502.00;;;;10317374;28;47169;-71
2022/01/31 10:20:04;;;;;;;0.00;0.00;;;17.40;30.10;17.40;93520.00;;;;10317506;28;45171;-71
2022/01/31 10:25:14;;;;;;;0.08;0.00;;;17.40;30.10;17.50;93503.00;;;;10301082;28;47251;-71
2022/01/31 10:30:23;;;;;;;0.00;0.00;;;17.50;30.10;17.60;93499.00;;;;10318974;28;47379;-73
2022/01/31 10:35:30;;;;;;;0.10;0.00;;;17.50;31.10;17.60;93501.00;;;;10319357;28;47355;-75
2022/01/31 10:56:17;;;;;;;0.20;0.08;;;17.80;30.20;17.70;93501.00;;;;10315907;28;46225;-72
2022/01/31 11:01:18;;;;;;;0.10;0.05;;;17.80;30.20;17.70;93505.00;;;;10316302;28;46888;-72
2022/01/31 11:06:20;;;;;;;0.08;0.08;;;17.80;30.20;17.80;93516.00;;;;10316265;28;47419;-72
2022/01/31 11:11:21;;;;;;;0.10;0.00;;;17.80;30.30;17.80;93514.00;;;;10317140;28;45366;-72
2022/01/31 11:16:24;;;;;;;0.47;0.22;;;17.90;30.30;17.80;93514.00;;;;10316081;28;46817;-72
2022/01/31 11:21:29;;;;;;;0.17;0.10;;;17.90;30.20;17.80;93518.00;;;;10331297;28;47011;-71
2022/01/31 11:26:39;;;;;;;0.50;0.00;;;17.90;30.20;17.80;93491.00;;;;10356874;28;47981;-72
2022/01/31 11:31:41;;;;;;;0.30;0.10;;;17.90;30.10;17.80;93501.00;;;;10340652;28;47103;-72
2022/01/31 11:36:43;;;;;;;0.00;0.00;;;17.90;30.00;17.80;93509.00;;;;10356686;28;45341;-72
2022/01/31 11:41:59;;;;;;;0.00;0.00;;;17.90;30.00;17.80;93502.00;;;;10357088;28;45465;-72
2022/01/31 11:47:05;;;;;;;0.00;0.00;;;17.90;30.00;17.80;93516.00;;;;10356694;28;47147;-72
2022/01/31 11:52:07;;;;;;;0.00;0.00;;;17.90;29.90;17.80;93498.00;;;;10356681;28;46185;-72
2022/01/31 11:57:22;;;;;;;0.00;0.00;;;17.90;29.80;17.80;93508.00;;;;10355656;28;46111;-72
2022/01/31 12:02:29;;;;;;;0.00;0.00;;;17.80;29.70;17.70;93505.00;;;;10356649;28;45240;-72
2022/01/31 12:07:42;;;;;;;0.40;0.00;;;17.80;29.70;17.70;93514.00;;;;10355770;28;48263;-71
2022/01/31 12:13:00;;;;;;;0.00;0.00;;;17.80;29.70;17.70;93504.00;;;;10355642;28;46055;-72
2022/01/31 12:18:43;;;;;;;0.00;0.00;;;17.70;29.50;17.70;93528.00;;;;10357370;28;47800;-73
2022/01/31 12:23:52;;;;;;;0.15;0.00;;;17.70;29.50;17.70;93505.00;;;;10320747;28;46009;-71
2022/01/31 12:29:10;;;;;;;3.60;0.20;;;17.70;29.60;17.60;93512.00;;;;10297471;28;46853;-74
2022/01/31 12:34:17;;;;;;;2.10;0.20;;;17.70;29.70;17.60;93520.00;;;;10322719;28;47855;-71
2022/01/31 12:39:31;;;;;;;;;;;17.60;29.70;17.60;93493.00;;;;10351368;28;48211;-72
2022/01/31 12:44:32;;;;;;;0.82;0.10;;;17.60;29.80;17.60;93494.00;;;;10306585;28;47194;-72
2022/01/31 12:49:32;;;;;;;1.30;0.10;;;17.60;29.70;17.60;93505.00;;;;10330304;28;46870;-72
2022/01/31 12:54:38;;;;;;;0.03;0.00;;;17.60;29.70;17.60;93483.00;;;;10313298;28;46841;-71
2022/01/31 12:59:41;;;;;;;0.25;0.10;;;17.70;29.80;17.60;93515.00;;;;10313796;28;47208;-72
2022/01/31 13:04:48;;;;;;;0.10;0.10;;;17.70;29.70;17.70;93529.00;;;;10316586;28;45522;-71
2022/01/31 13:09:49;;;;;;;0.30;0.00;;;17.70;29.70;17.70;93517.00;;;;10319032;28;47407;-72
2022/01/31 13:14:52;;;;;;;0.20;0.10;;;17.70;29.50;17.60;93525.00;;;;10344335;28;47311;-72
2022/01/31 13:20:00;;;;;;;0.90;0.10;;;17.70;29.50;17.60;93529.00;;;;10328087;28;46713;-72
2022/01/31 13:25:08;;;;;;;0.20;0.10;;;17.70;29.50;17.60;93511.00;;;;10355063;28;47010;-72
2022/01/31 13:30:17;;;;;;;0.68;0.20;;;17.70;29.40;17.70;93500.00;;;;10354811;28;47454;-72
2022/01/31 13:35:27;;;;;;;0.43;0.10;;;17.70;29.40;17.60;93505.00;;;;10328322;28;47083;-72
2022/01/31 13:40:42;;;;;;;0.05;0.00;;;17.70;29.40;17.60;93503.00;;;;10323549;28;46636;-72
2022/01/31 13:51:12;;;;;;;0.75;0.20;;;17.70;29.40;17.60;93495.00;;;;10320109;28;45156;-72
2022/01/31 13:56:14;;;;;;;0.52;0.20;;;17.70;29.50;17.60;93484.00;;;;10319133;28;47179;-72
2022/01/31 14:01:22;;;;;;;0.57;0.10;;;17.60;29.50;17.60;93508.00;;;;10302810;28;47229;-71
2022/01/31 14:06:23;;;;;;;0.57;0.10;;;17.60;29.50;17.60;93503.00;;;;10319603;28;46532;-74
2022/01/31 14:11:27;;;;;;;0.20;0.10;;;17.60;29.50;17.60;93488.00;;;;10319021;28;45229;-72
2022/01/31 14:16:39;;;;;;;1.10;0.13;;;17.60;29.60;17.70;93499.00;;;;10317981;28;47201;-72
2022/01/31 14:21:46;;;;;;;0.85;0.30;;;17.70;29.80;17.70;93496.00;;;;10335632;28;46886;-71
2022/01/31 14:26:53;;;;;;;;;;;17.70;29.70;17.70;93509.00;;;;10359528;28;45664;-72
2022/01/31 14:31:54;;;;;;;2.00;0.30;;;17.70;29.60;17.70;93520.00;;;;10359209;28;45459;-72
2022/01/31 14:37:03;;;;;;;1.63;0.35;;;17.70;29.40;17.70;93537.00;;;;10356922;28;45148;-73
2022/01/31 14:42:42;;;;;;;1.50;0.20;;;17.70;29.40;17.70;93549.00;;;;10359589;28;45428;-72
2022/01/31 14:47:54;;;;;;;0.43;0.13;;;17.70;30.00;17.70;93547.00;;;;10321508;28;46165;-73
2022/01/31 14:52:55;;;;;;;0.10;0.00;;;17.70;29.70;17.70;93539.00;;;;10302452;28;47062;-73
2022/01/31 14:57:55;;;;;;;0.90;0.10;;;17.80;29.70;17.70;93520.00;;;;10314024;28;46669;-73
2022/01/31 15:02:56;;;;;;;0.43;0.10;;;17.80;29.60;17.70;93521.00;;;;10329370;28;48263;-73
2022/01/31 15:07:57;;;;;;;0.28;0.10;;;17.80;29.50;17.80;93524.00;;;;10358091;28;45229;-73
2022/01/31 15:13:01;;;;;;;0.17;0.00;;;17.80;29.40;17.80;93512.00;;;;10341355;28;47355;-73
2022/01/31 15:18:02;;;;;;;0.30;0.00;;;17.80;29.40;17.80;93526.00;;;;10357777;28;46428;-73
2022/01/31 15:23:11;;;;;;;0.20;0.10;;;17.90;29.30;17.80;93532.00;;;;10329312;28;47032;-73
2022/01/31 15:28:12;;;;;;;0.32;0.10;;;17.90;29.10;17.80;93542.00;;;;10316778;28;47538;-73
2022/01/31 15:33:13;;;;;;;0.80;0.20;;;17.90;29.10;17.80;93536.00;;;;10316150;28;48108;-73
2022/01/31 15:38:14;;;;;;;0.90;0.20;;;17.90;28.90;17.80;93532.00;;;;10316032;28;47200;-73
2022/01/31 15:43:15;;;;;;;0.90;0.20;;;17.90;28.90;17.80;93569.00;;;;10316591;28;46335;-73
2022/01/31 15:48:16;;;;;;;0.88;0.20;;;17.90;28.80;17.80;93572.00;;;;10315899;28;47246;-72
2022/01/31 15:53:17;;;;;;;1.95;0.20;;;17.90;28.90;17.80;93587.00;;;;10315915;28;46329;-73
2022/01/31 15:58:19;;;;;;;1.08;0.30;;;17.80;28.90;17.80;93626.00;;;;10315692;28;45409;-72
2022/01/31 16:03:20;;;;;;;0.85;0.32;;;17.90;28.90;17.80;93602.00;;;;10315037;28;46354;-73
2022/01/31 16:08:23;;;;;;;3.80;0.70;;;17.80;29.10;17.70;93599.00;;;;10315508;28;48186;-73
2022/01/31 16:13:23;;;;;;;0.75;0.30;;;17.80;32.90;17.70;93588.00;;;;10316692;28;45338;-73
2022/01/31 16:18:24;;;;;;;1.35;0.45;;;17.80;31.60;17.70;93595.00;;;;10315056;28;46960;-73
2022/01/31 16:23:27;;;;;;;1.42;0.60;;;17.70;30.80;17.70;93587.00;;;;10317851;28;46402;-72
2022/01/31 16:28:27;;;;;;;2.13;0.60;;;17.70;30.00;17.70;93583.00;;;;10298725;28;46872;-72
2022/01/31 16:33:28;;;;;;;1.40;0.40;;;17.70;29.90;17.70;93591.00;;;;10315732;28;45638;-73
2022/01/31 16:38:29;;;;;;;2.13;0.30;;;17.70;29.70;17.70;93585.00;;;;10314705;28;45298;-72
2022/01/31 16:43:30;;;;;;;1.70;0.40;;;17.70;29.40;17.60;93605.00;;;;10314100;28;47931;-71
2022/01/31 16:48:31;;;;;;;0.90;0.38;;;17.70;29.20;17.60;93603.00;;;;10313692;28;47425;-71
2022/01/31 16:53:32;;;;;;;1.15;0.40;;;17.60;29.00;17.60;93618.00;;;;10312371;28;48309;-71
2022/01/31 16:58:32;;;;;;;0.60;0.30;;;17.60;28.80;17.60;93649.00;;;;10311752;28;47263;-71
2022/01/31 17:03:33;;;;;;;2.28;0.40;;;17.50;28.70;17.50;93643.00;;;;10308457;28;48471;-71
2022/01/31 17:08:34;;;;;;;1.75;0.90;;;17.50;28.80;17.50;93639.00;;;;10312415;28;45250;-71
2022/01/31 17:13:36;;;;;;;1.65;0.90;;;17.50;28.70;17.50;93635.00;;;;10312007;28;48228;-71
2022/01/31 17:18:37;;;;;;;1.92;0.90;;;17.50;28.80;17.50;93642.00;;;;10310787;28;47396;-71
2022/01/31 17:23:37;;;;;;;2.22;0.73;;;17.40;28.80;17.50;93651.00;;;;10311994;28;45343;-71
2022/01/31 17:28:39;;;;;;;0.85;0.50;;;17.40;28.80;17.50;93644.00;;;;10295554;28;47268;-71
2022/01/31 17:33:42;;;;;;;1.50;0.50;;;17.40;28.90;17.50;93651.00;;;;10312648;28;46198;-71
2022/01/31 17:38:43;;;;;;;1.17;0.55;;;17.40;29.00;17.50;93666.00;;;;10311822;28;47401;-71
2022/01/31 17:43:44;;;;;;;0.90;0.50;;;17.40;29.00;17.40;93671.00;;;;10311174;28;46821;-71
2022/01/31 17:48:47;;;;;;;1.13;0.50;;;17.30;29.00;17.40;93674.00;;;;10312167;28;45411;-71
2022/01/31 17:53:48;;;;;;;0.90;0.47;;;17.40;29.20;17.40;93686.00;;;;10311197;28;45443;-71
2022/01/31 17:58:48;;;;;;;1.52;0.50;;;17.40;29.20;17.40;93705.00;;;;10312593;28;46654;-71
2022/01/31 18:03:49;;;;;;;1.55;0.43;;;17.40;29.30;17.50;93741.00;;;;10311353;28;48194;-72
2022/01/31 18:08:50;;;;;;;1.05;0.60;;;17.30;29.30;17.50;93720.00;;;;10311953;28;47283;-72
2022/01/31 18:13:50;;;;;;;0.98;0.45;;;17.40;29.30;17.50;93727.00;;;;10316388;28;46906;-71
2022/01/31 18:18:51;;;;;;;1.05;0.40;;;17.40;29.30;17.50;93719.00;;;;10317313;28;48239;-72
2022/01/31 18:23:51;;;;;;;0.65;0.30;;;17.40;29.30;17.50;93729.00;;;;10351724;28;46814;-72
2022/01/31 18:28:53;;;;;;;0.32;0.15;;;17.50;29.30;17.50;93713.00;;;;10358661;28;45344;-71
2022/01/31 18:33:53;;;;;;;0.70;0.30;;;17.50;29.40;17.50;93741.00;;;;10358448;28;47210;-71
2022/01/31 18:38:54;;;;;;;0.50;0.20;;;17.50;29.40;17.50;93742.00;;;;10356471;28;48442;-71
2022/01/31 18:44:01;;;;;;;0.45;0.30;;;17.50;29.40;17.50;93699.00;;;;10356721;28;46886;-71
2022/01/31 18:49:03;;;;;;;0.32;0.30;;;17.60;29.30;17.60;93732.00;;;;10359448;28;45570;-72
2022/01/31 18:54:07;;;;;;;0.20;0.20;;;17.60;29.30;17.60;93736.00;;;;10357306;28;46458;-72
2022/01/31 18:59:08;;;;;;;0.70;0.40;;;17.60;29.30;17.60;93722.00;;;;10333675;28;47465;-71
2022/01/31 19:04:09;;;;;;;0.47;0.20;;;17.60;29.10;17.60;93739.00;;;;10318510;28;46889;-71
2022/01/31 19:09:15;;;;;;;0.68;0.30;;;17.60;29.00;17.60;93733.00;;;;10316715;28;47224;-71
2022/01/31 19:15:42;;;;;;;0.40;0.32;;;17.60;29.00;17.60;93718.00;;;;10314461;28;45284;-71
2022/01/31 19:19:37;;;;;;;0.20;0.20;;;17.60;29.00;17.60;93741.00;;;;10315655;28;45871;-71
2022/01/31 19:24:38;;;;;;;0.20;0.20;;;17.60;28.90;17.50;93725.00;;;;10341399;28;46831;-71
2022/01/31 19:29:38;;;;;;;0.50;0.30;;;17.60;28.90;17.50;93734.00;;;;10314152;28;48108;-71
2022/01/31 19:34:39;;;;;;;0.10;0.10;;;17.50;28.80;17.50;93723.00;;;;10296825;28;46954;-71
2022/01/31 19:43:16;;;;;;;0.30;0.10;;;17.50;28.80;17.50;93737.00;;;;10315005;28;45194;-71
2022/01/31 19:45:04;;;;;;;0.10;0.10;;;17.50;28.80;17.50;93748.00;;;;10313955;28;45501;-71
2022/01/31 19:50:06;;;;;;;0.00;0.00;;;17.50;28.80;17.50;93741.00;;;;10314802;28;46886;-71
2022/01/31 19:55:07;;;;;;;0.20;0.10;;;17.50;28.70;17.50;93750.00;;;;10314102;28;45403;-71
2022/01/31 20:00:09;;;;;;;0.20;0.10;;;17.50;29.20;17.50;93771.00;;;;10314599;28;46798;-71
2022/01/31 20:05:10;;;;;;;0.17;0.10;;;17.50;28.70;17.50;93786.00;;;;10314031;28;45324;-71
2022/01/31 20:10:11;;;;;;;0.25;0.10;;;17.50;28.60;17.50;93780.00;;;;10314219;28;46349;-71
2022/01/31 20:15:11;;;;;;;0.10;0.10;;;17.40;28.50;17.50;93783.00;;;;10312369;28;45476;-71
2022/01/31 20:20:12;;;;;;;0.35;0.30;;;17.40;28.70;17.50;93781.00;;;;10313644;28;47283;-70
2022/01/31 20:25:16;;;;;;;0.38;0.30;;;17.40;28.60;17.40;93791.00;;;;10313511;28;48266;-71
2022/01/31 20:30:16;;;;;;;0.20;0.20;;;17.40;28.60;17.50;93789.00;;;;10313501;28;47119;-70
2022/01/31 20:35:17;;;;;;;0.20;0.20;;;17.30;28.60;17.40;93777.00;;;;10297436;28;47060;-71
2022/01/31 20:45:39;;;;;;;0.10;0.10;;;17.40;28.60;17.40;93803.00;;;;10338859;28;46346;-69
2022/01/31 20:50:41;;;;;;;0.00;0.00;;;17.40;28.70;17.40;93785.00;;;;10346200;28;46994;-71
2022/01/31 20:55:44;;;;;;;0.00;0.00;;;17.40;28.70;17.30;93789.00;;;;10345329;28;46222;-71
2022/01/31 21:00:50;;;;;;;0.00;0.00;;;17.30;28.70;17.40;93801.00;;;;10329256;28;46915;-71
2022/01/31 21:05:55;;;;;;;0.00;0.00;;;17.30;28.60;17.40;93816.00;;;;10345796;28;46753;-71
2022/01/31 21:11:04;;;;;;;0.05;0.00;;;17.30;28.60;17.40;93818.00;;;;10328970;28;46977;-70
2022/01/31 21:16:07;;;;;;;0.00;0.00;;;17.30;28.70;17.40;93818.00;;;;10327993;28;47326;-71
2022/01/31 21:21:08;;;;;;;0.00;0.00;;;17.30;28.60;17.40;93828.00;;;;10335419;28;47409;-71
2022/01/31 21:26:12;;;;;;;0.00;0.00;;;17.30;28.60;17.40;93813.00;;;;10348405;28;46282;-70
2022/01/31 21:31:13;;;;;;;0.03;0.00;;;17.30;28.70;17.30;93845.00;;;;10348591;28;47171;-71
2022/01/31 21:36:17;;;;;;;0.00;0.00;;;17.20;28.70;17.30;93857.00;;;;10330931;28;47720;-71
2022/01/31 21:41:19;;;;;;;0.57;0.40;;;17.20;28.70;17.30;93851.00;;;;10312267;28;46933;-70
2022/01/31 21:46:20;;;;;;;0.35;0.10;;;17.20;28.70;17.30;93863.00;;;;10347403;28;45327;-71
2022/01/31 21:51:21;;;;;;;0.28;0.20;;;17.20;28.60;17.30;93855.00;;;;10354610;28;46725;-71
2022/01/31 21:56:21;;;;;;;0.20;0.10;;;17.10;28.70;17.30;93871.00;;;;10351839;28;48065;-70
2022/01/31 22:01:22;;;;;;;0.15;0.10;;;17.10;28.70;17.20;93856.00;;;;10341332;28;47541;-71
2022/01/31 22:06:23;;;;;;;0.00;0.00;;;17.10;28.70;17.20;93863.00;;;;10318748;28;46968;-71
2022/01/31 22:16:25;;;;;;;0.15;0.10;;;17.10;28.70;17.20;93844.00;;;;10319613;28;45129;-72
2022/01/31 22:21:25;;;;;;;0.10;0.10;;;17.00;28.80;17.20;93875.00;;;;10322542;28;45286;-71
2022/01/31 22:26:30;;;;;;;0.20;0.00;;;17.10;28.90;17.20;93868.00;;;;10332704;28;45344;-71
2022/01/31 22:31:34;;;;;;;0.10;0.10;;;17.00;29.00;17.10;93887.00;;;;10323523;28;46414;-71
2022/01/31 22:36:41;;;;;;;1.15;0.10;;;17.00;29.40;17.10;93893.00;;;;10318966;28;48435;-72
2022/01/31 22:41:51;;;;;;;0.20;0.10;;;17.00;29.00;17.10;93896.00;;;;10319517;28;47985;-72
2022/01/31 22:46:53;;;;;;;0.73;0.20;;;17.00;29.00;17.10;93894.00;;;;10318948;28;47097;-72
2022/01/31 22:51:54;;;;;;;0.65;0.25;;;17.00;28.90;17.10;93902.00;;;;10318396;28;48516;-72